sensor_id;sensor_type;location;lat;lon;timestamp;P1;durP1;ratioP1;P2;durP2;ratioP2
74401;SDS011;62837;51.082;13.744;2022-11-25T00:01:09;13.50;;;6.90;;
74401;SDS011;62837;51.082;13.744;2022-11-25T00:03:42;14.00;;;6.60;;
74401;SDS011;62837;51.082;13.744;2022-11-25T00:06:14;14.90;;;7.20;;
74401;SDS011;62837;51.082;13.744;2022-11-25T00:08:46;17.30;;;6.90;;
74401;SDS011;62837;51.082;13.744;2022-11-25T00:11:18;15.80;;;7.30;;
74401;SDS011;62837;51.082;13.744;2022-11-25T00:13:50;14.60;;;6.40;;
74401;SDS011;62837;51.082;13.744;2022-11-25T00:16:21;16.10;;;7.20;;
74401;SDS011;62837;51.082;13.744;2022-11-25T00:18:54;12.60;;;6.50;;
74401;SDS011;62837;51.082;13.744;2022-11-25T00:21:26;13.60;;;5.80;;
74401;SDS011;62837;51.082;13.744;2022-11-25T00:24:00;13.90;;;6.80;;
74401;SDS011;62837;51.082;13.744;2022-11-25T00:26:32;11.90;;;6.00;;
74401;SDS011;62837;51.082;13.744;2022-11-25T00:29:05;16.00;;;7.60;;
74401;SDS011;62837;51.082;13.744;2022-11-25T00:31:38;12.90;;;7.00;;
74401;SDS011;62837;51.082;13.744;2022-11-25T00:34:12;15.70;;;6.10;;
74401;SDS011;62837;51.082;13.744;2022-11-25T00:36:43;13.40;;;5.80;;
74401;SDS011;62837;51.082;13.744;2022-11-25T00:39:14;13.70;;;5.50;;
74401;SDS011;62837;51.082;13.744;2022-11-25T00:41:46;14.80;;;5.50;;
74401;SDS011;62837;51.082;13.744;2022-11-25T00:44:34;11.70;;;5.50;;
74401;SDS011;62837;51.082;13.744;2022-11-25T00:47:09;11.80;;;5.50;;
74401;SDS011;62837;51.082;13.744;2022-11-25T00:49:42;11.40;;;5.60;;
74401;SDS011;62837;51.082;13.744;2022-11-25T00:52:16;8.50;;;4.60;;
74401;SDS011;62837;51.082;13.744;2022-11-25T00:54:49;9.40;;;4.90;;
74401;SDS011;62837;51.082;13.744;2022-11-25T00:57:22;13.70;;;5.20;;
74401;SDS011;62837;51.082;13.744;2022-11-25T00:59:53;13.40;;;4.70;;
74401;SDS011;62837;51.082;13.744;2022-11-25T01:02:24;13.70;;;5.30;;
74401;SDS011;62837;51.082;13.744;2022-11-25T01:04:55;14.90;;;5.60;;
74401;SDS011;62837;51.082;13.744;2022-11-25T01:07:26;11.10;;;5.30;;
74401;SDS011;62837;51.082;13.744;2022-11-25T01:09:57;13.80;;;7.60;;
74401;SDS011;62837;51.082;13.744;2022-11-25T01:12:27;11.80;;;5.20;;
74401;SDS011;62837;51.082;13.744;2022-11-25T01:14:58;13.20;;;5.20;;
74401;SDS011;62837;51.082;13.744;2022-11-25T01:17:29;8.60;;;5.50;;
74401;SDS011;62837;51.082;13.744;2022-11-25T01:20:00;9.30;;;5.40;;
74401;SDS011;62837;51.082;13.744;2022-11-25T01:22:31;11.50;;;4.60;;
74401;SDS011;62837;51.082;13.744;2022-11-25T01:25:03;12.20;;;5.90;;
74401;SDS011;62837;51.082;13.744;2022-11-25T01:27:34;13.10;;;4.80;;
74401;SDS011;62837;51.082;13.744;2022-11-25T01:30:10;16.00;;;5.90;;
74401;SDS011;62837;51.082;13.744;2022-11-25T01:32:41;18.10;;;7.00;;
74401;SDS011;62837;51.082;13.744;2022-11-25T01:35:12;15.50;;;6.70;;
74401;SDS011;62837;51.082;13.744;2022-11-25T01:37:43;17.00;;;6.40;;
74401;SDS011;62837;51.082;13.744;2022-11-25T01:42:45;17.40;;;6.20;;
74401;SDS011;62837;51.082;13.744;2022-11-25T01:45:35;14.60;;;5.60;;
74401;SDS011;62837;51.082;13.744;2022-11-25T01:48:09;14.00;;;6.40;;
74401;SDS011;62837;51.082;13.744;2022-11-25T01:50:46;11.60;;;5.20;;
74401;SDS011;62837;51.082;13.744;2022-11-25T01:53:18;9.20;;;4.10;;
74401;SDS011;62837;51.082;13.744;2022-11-25T01:55:50;10.40;;;4.40;;
74401;SDS011;62837;51.082;13.744;2022-11-25T01:58:27;11.40;;;4.90;;
74401;SDS011;62837;51.082;13.744;2022-11-25T02:01:00;12.80;;;4.90;;
74401;SDS011;62837;51.082;13.744;2022-11-25T02:03:32;9.20;;;3.80;;
74401;SDS011;62837;51.082;13.744;2022-11-25T02:06:08;12.00;;;5.20;;
74401;SDS011;62837;51.082;13.744;2022-11-25T02:08:41;11.30;;;5.10;;
74401;SDS011;62837;51.082;13.744;2022-11-25T02:11:17;6.90;;;3.90;;
74401;SDS011;62837;51.082;13.744;2022-11-25T02:13:50;9.20;;;4.20;;
74401;SDS011;62837;51.082;13.744;2022-11-25T02:16:22;9.10;;;4.00;;
74401;SDS011;62837;51.082;13.744;2022-11-25T02:18:53;8.40;;;4.00;;
74401;SDS011;62837;51.082;13.744;2022-11-25T02:21:24;8.90;;;4.40;;
74401;SDS011;62837;51.082;13.744;2022-11-25T02:24:00;8.80;;;3.70;;
74401;SDS011;62837;51.082;13.744;2022-11-25T02:26:35;9.30;;;4.40;;
74401;SDS011;62837;51.082;13.744;2022-11-25T02:29:07;11.00;;;5.40;;
74401;SDS011;62837;51.082;13.744;2022-11-25T02:31:38;7.90;;;4.50;;
74401;SDS011;62837;51.082;13.744;2022-11-25T02:34:09;8.50;;;4.00;;
74401;SDS011;62837;51.082;13.744;2022-11-25T02:36:40;9.70;;;4.60;;
74401;SDS011;62837;51.082;13.744;2022-11-25T02:39:11;11.80;;;4.90;;
74401;SDS011;62837;51.082;13.744;2022-11-25T02:41:43;9.20;;;4.50;;
74401;SDS011;62837;51.082;13.744;2022-11-25T02:44:18;9.20;;;4.40;;
74401;SDS011;62837;51.082;13.744;2022-11-25T02:46:49;11.50;;;5.00;;
74401;SDS011;62837;51.082;13.744;2022-11-25T02:49:19;8.30;;;4.50;;
74401;SDS011;62837;51.082;13.744;2022-11-25T02:51:51;10.20;;;5.10;;
74401;SDS011;62837;51.082;13.744;2022-11-25T02:54:22;9.80;;;4.90;;
74401;SDS011;62837;51.082;13.744;2022-11-25T02:56:52;10.40;;;5.20;;
74401;SDS011;62837;51.082;13.744;2022-11-25T02:59:23;9.80;;;5.00;;
74401;SDS011;62837;51.082;13.744;2022-11-25T03:01:54;7.60;;;4.50;;
74401;SDS011;62837;51.082;13.744;2022-11-25T03:04:25;10.70;;;5.60;;
74401;SDS011;62837;51.082;13.744;2022-11-25T03:06:56;9.20;;;4.40;;
74401;SDS011;62837;51.082;13.744;2022-11-25T03:09:28;9.30;;;4.40;;
74401;SDS011;62837;51.082;13.744;2022-11-25T03:11:58;10.10;;;4.60;;
74401;SDS011;62837;51.082;13.744;2022-11-25T03:14:48;10.50;;;5.10;;
74401;SDS011;62837;51.082;13.744;2022-11-25T03:17:18;11.90;;;4.70;;
74401;SDS011;62837;51.082;13.744;2022-11-25T03:19:49;9.00;;;4.50;;
74401;SDS011;62837;51.082;13.744;2022-11-25T03:22:20;9.30;;;4.80;;
74401;SDS011;62837;51.082;13.744;2022-11-25T03:24:51;11.00;;;5.60;;
74401;SDS011;62837;51.082;13.744;2022-11-25T03:27:22;6.40;;;4.20;;
74401;SDS011;62837;51.082;13.744;2022-11-25T03:29:57;7.40;;;4.60;;
74401;SDS011;62837;51.082;13.744;2022-11-25T03:32:28;9.50;;;4.70;;
74401;SDS011;62837;51.082;13.744;2022-11-25T03:34:58;7.60;;;4.40;;
74401;SDS011;62837;51.082;13.744;2022-11-25T03:37:29;7.20;;;4.40;;
74401;SDS011;62837;51.082;13.744;2022-11-25T03:40:00;10.40;;;5.30;;
74401;SDS011;62837;51.082;13.744;2022-11-25T03:42:32;8.10;;;4.50;;
74401;SDS011;62837;51.082;13.744;2022-11-25T03:45:04;8.80;;;4.80;;
74401;SDS011;62837;51.082;13.744;2022-11-25T03:47:36;8.00;;;4.10;;
74401;SDS011;62837;51.082;13.744;2022-11-25T03:50:09;8.10;;;4.50;;
74401;SDS011;62837;51.082;13.744;2022-11-25T03:52:42;7.30;;;4.50;;
74401;SDS011;62837;51.082;13.744;2022-11-25T03:55:13;11.50;;;5.20;;
74401;SDS011;62837;51.082;13.744;2022-11-25T03:57:46;9.90;;;5.10;;
74401;SDS011;62837;51.082;13.744;2022-11-25T04:00:17;9.10;;;4.90;;
74401;SDS011;62837;51.082;13.744;2022-11-25T04:02:53;7.80;;;4.60;;
74401;SDS011;62837;51.082;13.744;2022-11-25T04:05:24;7.80;;;4.20;;
74401;SDS011;62837;51.082;13.744;2022-11-25T04:07:56;8.10;;;4.50;;
74401;SDS011;62837;51.082;13.744;2022-11-25T04:10:27;9.10;;;4.70;;
74401;SDS011;62837;51.082;13.744;2022-11-25T04:12:58;7.80;;;5.00;;
74401;SDS011;62837;51.082;13.744;2022-11-25T04:15:34;9.90;;;5.20;;
74401;SDS011;62837;51.082;13.744;2022-11-25T04:18:05;9.30;;;5.30;;
74401;SDS011;62837;51.082;13.744;2022-11-25T04:20:36;10.00;;;5.10;;
74401;SDS011;62837;51.082;13.744;2022-11-25T04:23:08;7.10;;;4.30;;
74401;SDS011;62837;51.082;13.744;2022-11-25T04:25:44;23.60;;;10.50;;
74401;SDS011;62837;51.082;13.744;2022-11-25T04:28:24;24.40;;;10.70;;
74401;SDS011;62837;51.082;13.744;2022-11-25T04:30:55;11.60;;;5.10;;
74401;SDS011;62837;51.082;13.744;2022-11-25T04:33:26;10.70;;;5.20;;
74401;SDS011;62837;51.082;13.744;2022-11-25T04:35:56;11.40;;;5.60;;
74401;SDS011;62837;51.082;13.744;2022-11-25T04:38:27;11.00;;;5.10;;
74401;SDS011;62837;51.082;13.744;2022-11-25T04:40:58;10.10;;;4.60;;
74401;SDS011;62837;51.082;13.744;2022-11-25T04:46:04;8.90;;;3.70;;
74401;SDS011;62837;51.082;13.744;2022-11-25T04:48:48;10.70;;;5.80;;
74401;SDS011;62837;51.082;13.744;2022-11-25T04:51:19;18.10;;;7.70;;
74401;SDS011;62837;51.082;13.744;2022-11-25T04:53:53;9.40;;;4.80;;
74401;SDS011;62837;51.082;13.744;2022-11-25T04:56:24;9.00;;;3.40;;
74401;SDS011;62837;51.082;13.744;2022-11-25T04:58:55;9.10;;;3.70;;
74401;SDS011;62837;51.082;13.744;2022-11-25T05:01:47;10.00;;;4.40;;
74401;SDS011;62837;51.082;13.744;2022-11-25T05:04:23;8.40;;;4.70;;
74401;SDS011;62837;51.082;13.744;2022-11-25T05:06:54;7.30;;;4.10;;
74401;SDS011;62837;51.082;13.744;2022-11-25T05:09:25;9.00;;;4.60;;
74401;SDS011;62837;51.082;13.744;2022-11-25T05:12:07;11.10;;;5.80;;
74401;SDS011;62837;51.082;13.744;2022-11-25T05:14:39;12.80;;;5.70;;
74401;SDS011;62837;51.082;13.744;2022-11-25T05:17:11;14.20;;;7.50;;
74401;SDS011;62837;51.082;13.744;2022-11-25T05:22:14;8.10;;;4.90;;
74401;SDS011;62837;51.082;13.744;2022-11-25T05:24:46;8.70;;;4.60;;
74401;SDS011;62837;51.082;13.744;2022-11-25T05:27:18;8.80;;;4.10;;
74401;SDS011;62837;51.082;13.744;2022-11-25T05:29:49;10.60;;;4.10;;
74401;SDS011;62837;51.082;13.744;2022-11-25T05:32:23;9.30;;;4.30;;
74401;SDS011;62837;51.082;13.744;2022-11-25T05:34:55;8.30;;;4.40;;
74401;SDS011;62837;51.082;13.744;2022-11-25T05:37:26;9.30;;;4.90;;
74401;SDS011;62837;51.082;13.744;2022-11-25T05:40:04;10.30;;;4.90;;
74401;SDS011;62837;51.082;13.744;2022-11-25T05:42:47;8.10;;;5.30;;
74401;SDS011;62837;51.082;13.744;2022-11-25T05:45:17;9.80;;;5.80;;
74401;SDS011;62837;51.082;13.744;2022-11-25T05:47:49;10.00;;;5.40;;
74401;SDS011;62837;51.082;13.744;2022-11-25T05:50:22;9.00;;;4.80;;
74401;SDS011;62837;51.082;13.744;2022-11-25T05:55:54;10.20;;;5.50;;
74401;SDS011;62837;51.082;13.744;2022-11-25T05:58:49;11.80;;;6.20;;
74401;SDS011;62837;51.082;13.744;2022-11-25T06:01:21;10.70;;;5.00;;
74401;SDS011;62837;51.082;13.744;2022-11-25T06:03:52;8.10;;;4.60;;
74401;SDS011;62837;51.082;13.744;2022-11-25T06:06:23;12.30;;;5.40;;
74401;SDS011;62837;51.082;13.744;2022-11-25T06:08:54;7.80;;;4.80;;
74401;SDS011;62837;51.082;13.744;2022-11-25T06:11:24;9.40;;;5.80;;
74401;SDS011;62837;51.082;13.744;2022-11-25T06:13:56;10.10;;;5.40;;
74401;SDS011;62837;51.082;13.744;2022-11-25T06:16:28;9.70;;;5.20;;
74401;SDS011;62837;51.082;13.744;2022-11-25T06:19:15;11.40;;;5.60;;
74401;SDS011;62837;51.082;13.744;2022-11-25T06:21:46;9.40;;;4.80;;
74401;SDS011;62837;51.082;13.744;2022-11-25T06:24:18;10.50;;;4.80;;
74401;SDS011;62837;51.082;13.744;2022-11-25T06:26:52;10.30;;;5.50;;
74401;SDS011;62837;51.082;13.744;2022-11-25T06:29:23;8.80;;;4.90;;
74401;SDS011;62837;51.082;13.744;2022-11-25T06:31:54;11.50;;;5.90;;
74401;SDS011;62837;51.082;13.744;2022-11-25T06:34:41;8.60;;;5.50;;
74401;SDS011;62837;51.082;13.744;2022-11-25T06:37:26;9.20;;;5.00;;
74401;SDS011;62837;51.082;13.744;2022-11-25T06:39:56;9.10;;;4.90;;
74401;SDS011;62837;51.082;13.744;2022-11-25T06:42:27;6.50;;;3.90;;
74401;SDS011;62837;51.082;13.744;2022-11-25T06:44:58;9.40;;;4.70;;
74401;SDS011;62837;51.082;13.744;2022-11-25T06:47:28;13.30;;;5.30;;
74401;SDS011;62837;51.082;13.744;2022-11-25T06:49:59;11.50;;;5.00;;
74401;SDS011;62837;51.082;13.744;2022-11-25T06:52:30;9.80;;;5.20;;
74401;SDS011;62837;51.082;13.744;2022-11-25T06:55:01;11.60;;;7.00;;
74401;SDS011;62837;51.082;13.744;2022-11-25T06:57:33;18.40;;;8.90;;
74401;SDS011;62837;51.082;13.744;2022-11-25T07:00:04;10.00;;;5.80;;
74401;SDS011;62837;51.082;13.744;2022-11-25T07:02:36;11.40;;;6.20;;
74401;SDS011;62837;51.082;13.744;2022-11-25T07:05:15;14.90;;;7.20;;
74401;SDS011;62837;51.082;13.744;2022-11-25T07:07:45;13.90;;;7.30;;
74401;SDS011;62837;51.082;13.744;2022-11-25T07:10:17;18.30;;;8.80;;
74401;SDS011;62837;51.082;13.744;2022-11-25T07:12:47;20.10;;;9.90;;
74401;SDS011;62837;51.082;13.744;2022-11-25T07:15:18;45.90;;;21.70;;
74401;SDS011;62837;51.082;13.744;2022-11-25T07:17:49;30.90;;;14.30;;
74401;SDS011;62837;51.082;13.744;2022-11-25T07:20:19;23.80;;;10.50;;
74401;SDS011;62837;51.082;13.744;2022-11-25T07:22:52;26.80;;;13.60;;
74401;SDS011;62837;51.082;13.744;2022-11-25T07:25:23;19.60;;;9.70;;
74401;SDS011;62837;51.082;13.744;2022-11-25T07:27:57;15.80;;;8.60;;
74401;SDS011;62837;51.082;13.744;2022-11-25T07:30:28;18.60;;;8.90;;
74401;SDS011;62837;51.082;13.744;2022-11-25T07:33:19;27.30;;;13.70;;
74401;SDS011;62837;51.082;13.744;2022-11-25T07:35:50;18.20;;;9.70;;
74401;SDS011;62837;51.082;13.744;2022-11-25T07:38:20;14.60;;;7.80;;
74401;SDS011;62837;51.082;13.744;2022-11-25T07:40:51;14.20;;;7.80;;
74401;SDS011;62837;51.082;13.744;2022-11-25T07:43:22;14.90;;;7.80;;
74401;SDS011;62837;51.082;13.744;2022-11-25T07:45:53;13.60;;;7.10;;
74401;SDS011;62837;51.082;13.744;2022-11-25T07:48:23;12.50;;;6.80;;
74401;SDS011;62837;51.082;13.744;2022-11-25T07:50:54;14.70;;;8.00;;
74401;SDS011;62837;51.082;13.744;2022-11-25T07:53:25;15.90;;;7.30;;
74401;SDS011;62837;51.082;13.744;2022-11-25T07:55:58;11.50;;;6.40;;
74401;SDS011;62837;51.082;13.744;2022-11-25T07:58:30;13.50;;;7.00;;
74401;SDS011;62837;51.082;13.744;2022-11-25T08:01:02;13.70;;;7.10;;
74401;SDS011;62837;51.082;13.744;2022-11-25T08:03:34;14.60;;;7.40;;
74401;SDS011;62837;51.082;13.744;2022-11-25T08:06:08;12.60;;;6.60;;
74401;SDS011;62837;51.082;13.744;2022-11-25T08:08:40;13.60;;;6.70;;
74401;SDS011;62837;51.082;13.744;2022-11-25T08:11:12;11.20;;;6.90;;
74401;SDS011;62837;51.082;13.744;2022-11-25T08:13:44;8.70;;;5.70;;
74401;SDS011;62837;51.082;13.744;2022-11-25T08:16:17;9.40;;;5.50;;
74401;SDS011;62837;51.082;13.744;2022-11-25T08:18:49;10.00;;;5.80;;
74401;SDS011;62837;51.082;13.744;2022-11-25T08:21:21;14.70;;;8.10;;
74401;SDS011;62837;51.082;13.744;2022-11-25T08:23:52;12.10;;;6.60;;
74401;SDS011;62837;51.082;13.744;2022-11-25T08:26:25;14.20;;;7.50;;
74401;SDS011;62837;51.082;13.744;2022-11-25T08:28:58;14.90;;;8.90;;
74401;SDS011;62837;51.082;13.744;2022-11-25T08:31:30;10.90;;;6.90;;
74401;SDS011;62837;51.082;13.744;2022-11-25T08:34:03;13.90;;;6.70;;
74401;SDS011;62837;51.082;13.744;2022-11-25T08:36:35;11.40;;;7.00;;
74401;SDS011;62837;51.082;13.744;2022-11-25T08:39:11;14.00;;;7.20;;
74401;SDS011;62837;51.082;13.744;2022-11-25T08:44:32;13.60;;;7.70;;
74401;SDS011;62837;51.082;13.744;2022-11-25T08:47:03;10.90;;;6.20;;
74401;SDS011;62837;51.082;13.744;2022-11-25T08:49:34;10.60;;;5.70;;
74401;SDS011;62837;51.082;13.744;2022-11-25T08:52:09;13.00;;;6.00;;
74401;SDS011;62837;51.082;13.744;2022-11-25T08:54:39;8.60;;;4.20;;
74401;SDS011;62837;51.082;13.744;2022-11-25T08:57:10;13.80;;;6.80;;
74401;SDS011;62837;51.082;13.744;2022-11-25T08:59:41;10.00;;;5.30;;
74401;SDS011;62837;51.082;13.744;2022-11-25T09:02:13;10.60;;;7.20;;
74401;SDS011;62837;51.082;13.744;2022-11-25T09:04:45;12.50;;;6.10;;
74401;SDS011;62837;51.082;13.744;2022-11-25T09:07:16;12.60;;;7.20;;
74401;SDS011;62837;51.082;13.744;2022-11-25T09:09:47;12.90;;;5.80;;
74401;SDS011;62837;51.082;13.744;2022-11-25T09:12:17;11.50;;;5.50;;
74401;SDS011;62837;51.082;13.744;2022-11-25T09:14:48;8.60;;;5.70;;
74401;SDS011;62837;51.082;13.744;2022-11-25T09:17:19;9.40;;;5.70;;
74401;SDS011;62837;51.082;13.744;2022-11-25T09:19:50;11.30;;;5.90;;
74401;SDS011;62837;51.082;13.744;2022-11-25T09:22:22;11.40;;;6.80;;
74401;SDS011;62837;51.082;13.744;2022-11-25T09:24:52;8.70;;;4.30;;
74401;SDS011;62837;51.082;13.744;2022-11-25T09:27:23;12.80;;;6.30;;
74401;SDS011;62837;51.082;13.744;2022-11-25T09:29:54;12.10;;;5.70;;
74401;SDS011;62837;51.082;13.744;2022-11-25T09:32:24;9.60;;;5.90;;
74401;SDS011;62837;51.082;13.744;2022-11-25T09:34:55;7.80;;;4.90;;
74401;SDS011;62837;51.082;13.744;2022-11-25T09:37:26;8.30;;;4.90;;
74401;SDS011;62837;51.082;13.744;2022-11-25T09:39:56;11.70;;;6.90;;
74401;SDS011;62837;51.082;13.744;2022-11-25T09:42:30;12.20;;;6.70;;
74401;SDS011;62837;51.082;13.744;2022-11-25T09:45:31;10.30;;;5.80;;
74401;SDS011;62837;51.082;13.744;2022-11-25T09:48:35;10.40;;;5.30;;
74401;SDS011;62837;51.082;13.744;2022-11-25T09:51:17;11.60;;;6.10;;
74401;SDS011;62837;51.082;13.744;2022-11-25T09:53:51;11.10;;;6.30;;
74401;SDS011;62837;51.082;13.744;2022-11-25T09:56:30;9.10;;;5.10;;
74401;SDS011;62837;51.082;13.744;2022-11-25T09:59:12;10.30;;;5.50;;
74401;SDS011;62837;51.082;13.744;2022-11-25T10:01:47;10.80;;;5.50;;
74401;SDS011;62837;51.082;13.744;2022-11-25T10:04:23;6.90;;;4.60;;
74401;SDS011;62837;51.082;13.744;2022-11-25T10:07:00;10.10;;;5.60;;
74401;SDS011;62837;51.082;13.744;2022-11-25T10:09:32;10.80;;;6.60;;
74401;SDS011;62837;51.082;13.744;2022-11-25T10:14:41;9.90;;;5.50;;
74401;SDS011;62837;51.082;13.744;2022-11-25T10:17:17;11.70;;;5.90;;
74401;SDS011;62837;51.082;13.744;2022-11-25T10:19:57;10.10;;;5.90;;
74401;SDS011;62837;51.082;13.744;2022-11-25T10:22:31;10.40;;;5.50;;
74401;SDS011;62837;51.082;13.744;2022-11-25T10:25:11;9.40;;;5.80;;
74401;SDS011;62837;51.082;13.744;2022-11-25T10:27:46;9.80;;;4.70;;
74401;SDS011;62837;51.082;13.744;2022-11-25T10:30:22;10.10;;;5.00;;
74401;SDS011;62837;51.082;13.744;2022-11-25T10:32:57;9.10;;;5.30;;
74401;SDS011;62837;51.082;13.744;2022-11-25T10:35:34;9.80;;;5.60;;
74401;SDS011;62837;51.082;13.744;2022-11-25T10:38:10;8.80;;;4.90;;
74401;SDS011;62837;51.082;13.744;2022-11-25T10:40:49;14.80;;;8.00;;
74401;SDS011;62837;51.082;13.744;2022-11-25T10:43:22;17.00;;;6.00;;
74401;SDS011;62837;51.082;13.744;2022-11-25T10:46:01;11.40;;;6.20;;
74401;SDS011;62837;51.082;13.744;2022-11-25T10:48:44;12.30;;;6.40;;
74401;SDS011;62837;51.082;13.744;2022-11-25T10:51:28;12.80;;;6.20;;
74401;SDS011;62837;51.082;13.744;2022-11-25T10:54:12;12.40;;;6.40;;
74401;SDS011;62837;51.082;13.744;2022-11-25T10:56:54;8.90;;;5.00;;
74401;SDS011;62837;51.082;13.744;2022-11-25T11:02:13;10.50;;;5.00;;
74401;SDS011;62837;51.082;13.744;2022-11-25T11:04:51;8.10;;;4.70;;
74401;SDS011;62837;51.082;13.744;2022-11-25T11:07:25;7.30;;;4.10;;
74401;SDS011;62837;51.082;13.744;2022-11-25T11:12:49;7.60;;;4.20;;
74401;SDS011;62837;51.082;13.744;2022-11-25T11:15:23;11.20;;;4.50;;
74401;SDS011;62837;51.082;13.744;2022-11-25T11:20:26;6.30;;;3.40;;
74401;SDS011;62837;51.082;13.744;2022-11-25T11:23:01;9.60;;;4.70;;
74401;SDS011;62837;51.082;13.744;2022-11-25T11:25:38;8.20;;;4.80;;
74401;SDS011;62837;51.082;13.744;2022-11-25T11:28:26;10.50;;;5.40;;
74401;SDS011;62837;51.082;13.744;2022-11-25T11:31:02;8.90;;;5.00;;
74401;SDS011;62837;51.082;13.744;2022-11-25T11:33:39;9.90;;;5.40;;
74401;SDS011;62837;51.082;13.744;2022-11-25T11:36:25;9.40;;;5.40;;
74401;SDS011;62837;51.082;13.744;2022-11-25T11:39:08;12.30;;;5.40;;
74401;SDS011;62837;51.082;13.744;2022-11-25T11:41:53;8.40;;;5.00;;
74401;SDS011;62837;51.082;13.744;2022-11-25T11:47:12;4.30;;;2.00;;
74401;SDS011;62837;51.082;13.744;2022-11-25T11:49:55;7.60;;;2.80;;
74401;SDS011;62837;51.082;13.744;2022-11-25T11:52:44;8.00;;;4.40;;
74401;SDS011;62837;51.082;13.744;2022-11-25T11:55:31;10.00;;;3.70;;
74401;SDS011;62837;51.082;13.744;2022-11-25T11:58:15;11.90;;;4.80;;
74401;SDS011;62837;51.082;13.744;2022-11-25T12:00:58;6.50;;;3.40;;
74401;SDS011;62837;51.082;13.744;2022-11-25T12:03:37;8.40;;;4.70;;
74401;SDS011;62837;51.082;13.744;2022-11-25T12:06:16;9.70;;;5.00;;
74401;SDS011;62837;51.082;13.744;2022-11-25T12:08:48;10.00;;;5.60;;
74401;SDS011;62837;51.082;13.744;2022-11-25T12:11:26;12.50;;;4.70;;
74401;SDS011;62837;51.082;13.744;2022-11-25T12:14:02;12.10;;;5.40;;
74401;SDS011;62837;51.082;13.744;2022-11-25T12:16:39;9.30;;;5.10;;
74401;SDS011;62837;51.082;13.744;2022-11-25T12:19:18;10.70;;;5.60;;
74401;SDS011;62837;51.082;13.744;2022-11-25T12:21:55;6.80;;;3.60;;
74401;SDS011;62837;51.082;13.744;2022-11-25T12:24:32;8.50;;;5.30;;
74401;SDS011;62837;51.082;13.744;2022-11-25T12:27:11;7.30;;;4.40;;
74401;SDS011;62837;51.082;13.744;2022-11-25T12:29:47;10.30;;;4.90;;
74401;SDS011;62837;51.082;13.744;2022-11-25T12:32:39;8.20;;;4.30;;
74401;SDS011;62837;51.082;13.744;2022-11-25T12:35:24;9.20;;;5.70;;
74401;SDS011;62837;51.082;13.744;2022-11-25T12:38:11;10.90;;;4.90;;
74401;SDS011;62837;51.082;13.744;2022-11-25T12:40:52;9.90;;;5.00;;
74401;SDS011;62837;51.082;13.744;2022-11-25T12:43:33;10.40;;;4.60;;
74401;SDS011;62837;51.082;13.744;2022-11-25T12:46:12;8.30;;;5.00;;
74401;SDS011;62837;51.082;13.744;2022-11-25T12:48:49;10.30;;;4.50;;
74401;SDS011;62837;51.082;13.744;2022-11-25T12:51:30;7.50;;;2.90;;
74401;SDS011;62837;51.082;13.744;2022-11-25T12:54:17;7.90;;;4.30;;
74401;SDS011;62837;51.082;13.744;2022-11-25T12:57:06;8.70;;;4.30;;
74401;SDS011;62837;51.082;13.744;2022-11-25T12:59:55;9.50;;;4.80;;
74401;SDS011;62837;51.082;13.744;2022-11-25T13:03:02;10.70;;;4.10;;
74401;SDS011;62837;51.082;13.744;2022-11-25T13:05:56;11.30;;;4.80;;
74401;SDS011;62837;51.082;13.744;2022-11-25T13:08:40;8.50;;;4.60;;
74401;SDS011;62837;51.082;13.744;2022-11-25T13:11:26;9.50;;;3.80;;
74401;SDS011;62837;51.082;13.744;2022-11-25T13:14:18;7.30;;;4.10;;
74401;SDS011;62837;51.082;13.744;2022-11-25T13:16:56;9.00;;;4.10;;
74401;SDS011;62837;51.082;13.744;2022-11-25T13:19:28;9.60;;;4.30;;
74401;SDS011;62837;51.082;13.744;2022-11-25T13:22:04;9.00;;;3.50;;
74401;SDS011;62837;51.082;13.744;2022-11-25T13:24:53;9.10;;;5.00;;
74401;SDS011;62837;51.082;13.744;2022-11-25T13:29:59;10.20;;;4.80;;
74401;SDS011;62837;51.082;13.744;2022-11-25T13:32:38;7.70;;;4.40;;
74401;SDS011;62837;51.082;13.744;2022-11-25T13:41:41;12.20;;;4.80;;
74401;SDS011;62837;51.082;13.744;2022-11-25T13:44:19;10.30;;;4.10;;
74401;SDS011;62837;51.082;13.744;2022-11-25T13:46:55;8.30;;;4.00;;
74401;SDS011;62837;51.082;13.744;2022-11-25T13:49:29;9.00;;;4.60;;
74401;SDS011;62837;51.082;13.744;2022-11-25T13:52:05;10.90;;;5.00;;
74401;SDS011;62837;51.082;13.744;2022-11-25T13:54:55;8.10;;;3.40;;
74401;SDS011;62837;51.082;13.744;2022-11-25T13:57:29;8.10;;;4.60;;
74401;SDS011;62837;51.082;13.744;2022-11-25T14:00:05;9.90;;;4.40;;
74401;SDS011;62837;51.082;13.744;2022-11-25T14:02:43;7.40;;;3.60;;
74401;SDS011;62837;51.082;13.744;2022-11-25T14:05:29;6.90;;;3.40;;
74401;SDS011;62837;51.082;13.744;2022-11-25T14:08:20;8.30;;;3.70;;
74401;SDS011;62837;51.082;13.744;2022-11-25T14:11:02;11.10;;;4.40;;
74401;SDS011;62837;51.082;13.744;2022-11-25T14:16:41;9.80;;;4.10;;
74401;SDS011;62837;51.082;13.744;2022-11-25T14:19:30;9.00;;;4.70;;
74401;SDS011;62837;51.082;13.744;2022-11-25T14:25:31;12.50;;;4.20;;
74401;SDS011;62837;51.082;13.744;2022-11-25T14:28:17;10.70;;;3.90;;
74401;SDS011;62837;51.082;13.744;2022-11-25T14:30:55;8.90;;;4.30;;
74401;SDS011;62837;51.082;13.744;2022-11-25T14:33:30;8.20;;;4.50;;
74401;SDS011;62837;51.082;13.744;2022-11-25T14:36:06;8.50;;;4.70;;
74401;SDS011;62837;51.082;13.744;2022-11-25T14:38:42;9.40;;;4.70;;
74401;SDS011;62837;51.082;13.744;2022-11-25T14:41:18;9.30;;;3.80;;
74401;SDS011;62837;51.082;13.744;2022-11-25T14:43:54;9.20;;;4.80;;
74401;SDS011;62837;51.082;13.744;2022-11-25T14:46:29;8.90;;;5.00;;
74401;SDS011;62837;51.082;13.744;2022-11-25T14:49:01;13.00;;;4.50;;
74401;SDS011;62837;51.082;13.744;2022-11-25T14:51:51;8.40;;;4.30;;
74401;SDS011;62837;51.082;13.744;2022-11-25T14:54:22;11.10;;;5.60;;
74401;SDS011;62837;51.082;13.744;2022-11-25T14:56:53;11.70;;;5.20;;
74401;SDS011;62837;51.082;13.744;2022-11-25T14:59:24;9.10;;;4.90;;
74401;SDS011;62837;51.082;13.744;2022-11-25T15:01:56;11.60;;;5.50;;
74401;SDS011;62837;51.082;13.744;2022-11-25T15:04:29;11.50;;;5.80;;
74401;SDS011;62837;51.082;13.744;2022-11-25T15:07:13;10.70;;;5.30;;
74401;SDS011;62837;51.082;13.744;2022-11-25T15:09:47;12.40;;;6.10;;
74401;SDS011;62837;51.082;13.744;2022-11-25T15:12:19;12.50;;;6.30;;
74401;SDS011;62837;51.082;13.744;2022-11-25T15:14:52;10.10;;;4.60;;
74401;SDS011;62837;51.082;13.744;2022-11-25T15:19:56;10.30;;;5.90;;
74401;SDS011;62837;51.082;13.744;2022-11-25T15:22:29;12.50;;;6.50;;
74401;SDS011;62837;51.082;13.744;2022-11-25T15:25:07;17.00;;;6.80;;
74401;SDS011;62837;51.082;13.744;2022-11-25T15:27:43;16.10;;;7.60;;
74401;SDS011;62837;51.082;13.744;2022-11-25T15:32:50;18.70;;;7.60;;
74401;SDS011;62837;51.082;13.744;2022-11-25T15:35:23;13.30;;;6.80;;
74401;SDS011;62837;51.082;13.744;2022-11-25T15:37:55;15.00;;;7.00;;
74401;SDS011;62837;51.082;13.744;2022-11-25T15:40:35;12.80;;;6.20;;
74401;SDS011;62837;51.082;13.744;2022-11-25T15:43:20;14.80;;;7.30;;
74401;SDS011;62837;51.082;13.744;2022-11-25T15:45:55;12.20;;;7.00;;
74401;SDS011;62837;51.082;13.744;2022-11-25T15:48:30;15.90;;;8.60;;
74401;SDS011;62837;51.082;13.744;2022-11-25T15:51:06;16.60;;;7.80;;
74401;SDS011;62837;51.082;13.744;2022-11-25T15:53:51;17.80;;;8.30;;
74401;SDS011;62837;51.082;13.744;2022-11-25T15:56:24;16.70;;;8.00;;
74401;SDS011;62837;51.082;13.744;2022-11-25T15:58:56;17.50;;;8.30;;